sensor_id;sensor_type;location;lat;lon;timestamp;temperature;humidity
21039;DHT22;10678;51.002;4.786;2023-08-30T00:00:32;15.90;99.90
21039;DHT22;10678;51.002;4.786;2023-08-30T00:02:58;15.90;99.90
21039;DHT22;10678;51.002;4.786;2023-08-30T00:05:24;15.90;99.90
21039;DHT22;10678;51.002;4.786;2023-08-30T00:07:49;15.80;99.90
21039;DHT22;10678;51.002;4.786;2023-08-30T00:10:15;15.70;99.90
21039;DHT22;10678;51.002;4.786;2023-08-30T00:12:40;15.70;99.90
21039;DHT22;10678;51.002;4.786;2023-08-30T00:15:07;15.80;99.90
21039;DHT22;10678;51.002;4.786;2023-08-30T00:17:32;15.80;99.90
21039;DHT22;10678;51.002;4.786;2023-08-30T00:19:58;15.90;99.90
21039;DHT22;10678;51.002;4.786;2023-08-30T00:22:25;16.00;99.90
21039;DHT22;10678;51.002;4.786;2023-08-30T00:24:53;16.00;99.90
21039;DHT22;10678;51.002;4.786;2023-08-30T00:27:18;15.90;99.90
21039;DHT22;10678;51.002;4.786;2023-08-30T00:29:46;15.90;99.90
21039;DHT22;10678;51.002;4.786;2023-08-30T00:32:12;16.00;99.90
21039;DHT22;10678;51.002;4.786;2023-08-30T00:34:37;15.90;99.90
21039;DHT22;10678;51.002;4.786;2023-08-30T00:37:03;16.00;99.90
21039;DHT22;10678;51.002;4.786;2023-08-30T00:39:29;16.00;99.90
21039;DHT22;10678;51.002;4.786;2023-08-30T00:41:54;15.80;99.90
21039;DHT22;10678;51.002;4.786;2023-08-30T00:44:20;15.90;99.90
21039;DHT22;10678;51.002;4.786;2023-08-30T00:46:46;16.00;99.90
21039;DHT22;10678;51.002;4.786;2023-08-30T00:49:12;16.00;99.90
21039;DHT22;10678;51.002;4.786;2023-08-30T00:51:38;16.10;99.90
21039;DHT22;10678;51.002;4.786;2023-08-30T00:54:04;16.10;99.90
21039;DHT22;10678;51.002;4.786;2023-08-30T00:56:30;16.10;99.90
21039;DHT22;10678;51.002;4.786;2023-08-30T00:58:56;16.20;99.90
21039;DHT22;10678;51.002;4.786;2023-08-30T01:01:22;16.10;99.90
21039;DHT22;10678;51.002;4.786;2023-08-30T01:03:48;16.20;99.90
21039;DHT22;10678;51.002;4.786;2023-08-30T01:06:13;16.20;99.90
21039;DHT22;10678;51.002;4.786;2023-08-30T01:08:41;16.20;99.90
21039;DHT22;10678;51.002;4.786;2023-08-30T01:14:22;16.10;99.90
21039;DHT22;10678;51.002;4.786;2023-08-30T01:16:51;16.20;99.90
21039;DHT22;10678;51.002;4.786;2023-08-30T01:19:26;16.30;99.90
21039;DHT22;10678;51.002;4.786;2023-08-30T01:22:03;16.20;99.90
21039;DHT22;10678;51.002;4.786;2023-08-30T01:24:40;16.20;99.90
21039;DHT22;10678;51.002;4.786;2023-08-30T01:27:11;16.30;99.90
21039;DHT22;10678;51.002;4.786;2023-08-30T01:29:38;16.20;99.90
21039;DHT22;10678;51.002;4.786;2023-08-30T01:32:08;16.20;99.90
21039;DHT22;10678;51.002;4.786;2023-08-30T01:34:35;16.10;99.90
21039;DHT22;10678;51.002;4.786;2023-08-30T01:37:04;16.10;99.90
21039;DHT22;10678;51.002;4.786;2023-08-30T01:39:30;16.10;99.90
21039;DHT22;10678;51.002;4.786;2023-08-30T01:41:57;16.00;99.90
21039;DHT22;10678;51.002;4.786;2023-08-30T01:44:31;16.00;99.90
21039;DHT22;10678;51.002;4.786;2023-08-30T01:46:57;16.00;99.90
21039;DHT22;10678;51.002;4.786;2023-08-30T01:49:24;16.00;99.90
21039;DHT22;10678;51.002;4.786;2023-08-30T01:51:51;16.00;99.90
21039;DHT22;10678;51.002;4.786;2023-08-30T01:54:18;16.00;99.90
21039;DHT22;10678;51.002;4.786;2023-08-30T01:56:45;16.00;99.90
21039;DHT22;10678;51.002;4.786;2023-08-30T01:59:11;16.00;99.90
21039;DHT22;10678;51.002;4.786;2023-08-30T02:01:37;16.00;99.90
21039;DHT22;10678;51.002;4.786;2023-08-30T02:04:03;16.00;99.90
21039;DHT22;10678;51.002;4.786;2023-08-30T02:06:50;16.10;99.90
21039;DHT22;10678;51.002;4.786;2023-08-30T02:09:28;16.10;99.90
21039;DHT22;10678;51.002;4.786;2023-08-30T02:11:55;16.00;99.90
21039;DHT22;10678;51.002;4.786;2023-08-30T02:14:24;16.00;99.90
21039;DHT22;10678;51.002;4.786;2023-08-30T02:16:52;16.10;99.90
21039;DHT22;10678;51.002;4.786;2023-08-30T02:19:20;16.10;99.90
21039;DHT22;10678;51.002;4.786;2023-08-30T02:21:46;16.10;99.90
21039;DHT22;10678;51.002;4.786;2023-08-30T02:24:13;16.10;99.90
21039;DHT22;10678;51.002;4.786;2023-08-30T02:26:38;16.10;99.90
21039;DHT22;10678;51.002;4.786;2023-08-30T02:29:04;16.10;99.90
21039;DHT22;10678;51.002;4.786;2023-08-30T02:31:30;16.10;99.90
21039;DHT22;10678;51.002;4.786;2023-08-30T02:33:55;16.00;99.90
21039;DHT22;10678;51.002;4.786;2023-08-30T02:36:21;16.10;99.90
21039;DHT22;10678;51.002;4.786;2023-08-30T02:38:47;16.10;99.90
21039;DHT22;10678;51.002;4.786;2023-08-30T02:41:12;16.10;99.90
21039;DHT22;10678;51.002;4.786;2023-08-30T02:43:38;16.20;99.90
21039;DHT22;10678;51.002;4.786;2023-08-30T02:46:04;16.10;99.90
21039;DHT22;10678;51.002;4.786;2023-08-30T02:48:31;16.20;99.90
21039;DHT22;10678;51.002;4.786;2023-08-30T02:50:57;16.30;99.90
21039;DHT22;10678;51.002;4.786;2023-08-30T02:53:23;16.20;99.90
21039;DHT22;10678;51.002;4.786;2023-08-30T02:55:48;16.20;99.90
21039;DHT22;10678;51.002;4.786;2023-08-30T02:58:14;16.30;99.90
21039;DHT22;10678;51.002;4.786;2023-08-30T03:00:40;16.30;99.90
21039;DHT22;10678;51.002;4.786;2023-08-30T03:03:06;16.30;99.90
21039;DHT22;10678;51.002;4.786;2023-08-30T03:05:31;16.30;99.90
21039;DHT22;10678;51.002;4.786;2023-08-30T03:07:57;16.30;99.90
21039;DHT22;10678;51.002;4.786;2023-08-30T03:10:23;16.30;99.90
21039;DHT22;10678;51.002;4.786;2023-08-30T03:12:48;16.30;99.90
21039;DHT22;10678;51.002;4.786;2023-08-30T03:15:14;16.30;99.90
21039;DHT22;10678;51.002;4.786;2023-08-30T03:17:39;16.30;99.90
21039;DHT22;10678;51.002;4.786;2023-08-30T03:20:06;16.30;99.90
21039;DHT22;10678;51.002;4.786;2023-08-30T03:22:32;16.30;99.90
21039;DHT22;10678;51.002;4.786;2023-08-30T03:24:57;16.30;99.90
21039;DHT22;10678;51.002;4.786;2023-08-30T03:27:24;16.30;99.90
21039;DHT22;10678;51.002;4.786;2023-08-30T03:29:49;16.30;99.90
21039;DHT22;10678;51.002;4.786;2023-08-30T03:32:17;16.30;99.90
21039;DHT22;10678;51.002;4.786;2023-08-30T03:34:46;16.40;99.90
21039;DHT22;10678;51.002;4.786;2023-08-30T03:37:16;16.40;99.90
21039;DHT22;10678;51.002;4.786;2023-08-30T03:39:42;16.40;99.90
21039;DHT22;10678;51.002;4.786;2023-08-30T03:42:08;16.40;99.90
21039;DHT22;10678;51.002;4.786;2023-08-30T03:44:34;16.40;99.90
21039;DHT22;10678;51.002;4.786;2023-08-30T03:47:00;16.40;99.90
21039;DHT22;10678;51.002;4.786;2023-08-30T03:49:25;16.40;99.90
21039;DHT22;10678;51.002;4.786;2023-08-30T03:51:51;16.40;99.90
21039;DHT22;10678;51.002;4.786;2023-08-30T03:54:17;16.40;99.90
21039;DHT22;10678;51.002;4.786;2023-08-30T03:56:43;16.40;99.90
21039;DHT22;10678;51.002;4.786;2023-08-30T03:59:09;16.30;99.90
21039;DHT22;10678;51.002;4.786;2023-08-30T04:01:35;16.30;99.90
21039;DHT22;10678;51.002;4.786;2023-08-30T04:04:01;16.30;99.90
21039;DHT22;10678;51.002;4.786;2023-08-30T04:06:26;16.30;99.90
21039;DHT22;10678;51.002;4.786;2023-08-30T04:08:52;16.30;99.90
21039;DHT22;10678;51.002;4.786;2023-08-30T04:11:18;16.30;99.90
21039;DHT22;10678;51.002;4.786;2023-08-30T04:13:43;16.20;99.90
21039;DHT22;10678;51.002;4.786;2023-08-30T04:16:09;16.30;99.90
21039;DHT22;10678;51.002;4.786;2023-08-30T04:18:34;16.30;99.90
21039;DHT22;10678;51.002;4.786;2023-08-30T04:21:00;16.30;99.90
21039;DHT22;10678;51.002;4.786;2023-08-30T04:23:28;16.20;99.90
21039;DHT22;10678;51.002;4.786;2023-08-30T04:25:55;16.30;99.90
21039;DHT22;10678;51.002;4.786;2023-08-30T04:28:21;16.20;99.90
21039;DHT22;10678;51.002;4.786;2023-08-30T04:30:46;16.30;99.90
21039;DHT22;10678;51.002;4.786;2023-08-30T04:33:12;16.20;99.90
21039;DHT22;10678;51.002;4.786;2023-08-30T04:35:38;16.20;99.90
21039;DHT22;10678;51.002;4.786;2023-08-30T04:38:04;16.30;99.90
21039;DHT22;10678;51.002;4.786;2023-08-30T04:40:30;16.30;99.90
21039;DHT22;10678;51.002;4.786;2023-08-30T04:42:57;16.30;99.90
21039;DHT22;10678;51.002;4.786;2023-08-30T04:45:23;16.30;99.90
21039;DHT22;10678;51.002;4.786;2023-08-30T04:47:48;16.30;99.90
21039;DHT22;10678;51.002;4.786;2023-08-30T04:50:14;16.30;99.90
21039;DHT22;10678;51.002;4.786;2023-08-30T04:52:40;16.30;99.90
21039;DHT22;10678;51.002;4.786;2023-08-30T04:55:06;16.30;99.90
21039;DHT22;10678;51.002;4.786;2023-08-30T04:57:32;16.30;99.90
21039;DHT22;10678;51.002;4.786;2023-08-30T04:59:57;16.30;99.90
21039;DHT22;10678;51.002;4.786;2023-08-30T05:02:23;16.40;99.90
21039;DHT22;10678;51.002;4.786;2023-08-30T05:04:49;16.30;99.90
21039;DHT22;10678;51.002;4.786;2023-08-30T05:07:15;16.40;99.90
21039;DHT22;10678;51.002;4.786;2023-08-30T05:09:40;16.30;99.90
21039;DHT22;10678;51.002;4.786;2023-08-30T05:12:07;16.40;99.90
21039;DHT22;10678;51.002;4.786;2023-08-30T05:14:33;16.30;99.90
21039;DHT22;10678;51.002;4.786;2023-08-30T05:16:58;16.40;99.90
21039;DHT22;10678;51.002;4.786;2023-08-30T05:19:24;16.40;99.90
21039;DHT22;10678;51.002;4.786;2023-08-30T05:21:49;16.30;99.90
21039;DHT22;10678;51.002;4.786;2023-08-30T05:24:18;16.40;99.90
21039;DHT22;10678;51.002;4.786;2023-08-30T05:26:44;16.30;99.90
21039;DHT22;10678;51.002;4.786;2023-08-30T05:29:12;16.30;99.90
21039;DHT22;10678;51.002;4.786;2023-08-30T05:31:38;16.30;99.90
21039;DHT22;10678;51.002;4.786;2023-08-30T05:34:04;16.30;99.90
21039;DHT22;10678;51.002;4.786;2023-08-30T05:36:29;16.40;99.90
21039;DHT22;10678;51.002;4.786;2023-08-30T05:38:55;16.40;99.90
21039;DHT22;10678;51.002;4.786;2023-08-30T05:41:21;16.40;99.90
21039;DHT22;10678;51.002;4.786;2023-08-30T05:43:46;16.40;99.90
21039;DHT22;10678;51.002;4.786;2023-08-30T05:46:12;16.40;99.90
21039;DHT22;10678;51.002;4.786;2023-08-30T05:48:40;16.40;99.90
21039;DHT22;10678;51.002;4.786;2023-08-30T05:51:06;16.30;99.90
21039;DHT22;10678;51.002;4.786;2023-08-30T05:53:31;16.30;99.90
21039;DHT22;10678;51.002;4.786;2023-08-30T05:55:57;16.20;99.90
21039;DHT22;10678;51.002;4.786;2023-08-30T05:58:22;16.20;99.90
21039;DHT22;10678;51.002;4.786;2023-08-30T06:00:48;16.20;99.90
21039;DHT22;10678;51.002;4.786;2023-08-30T06:03:14;16.20;99.90
21039;DHT22;10678;51.002;4.786;2023-08-30T06:05:39;16.20;99.90
21039;DHT22;10678;51.002;4.786;2023-08-30T06:08:05;16.40;99.90
21039;DHT22;10678;51.002;4.786;2023-08-30T06:10:31;16.40;99.90
21039;DHT22;10678;51.002;4.786;2023-08-30T06:12:56;16.50;99.90
21039;DHT22;10678;51.002;4.786;2023-08-30T06:15:22;16.50;99.90
21039;DHT22;10678;51.002;4.786;2023-08-30T06:17:48;16.50;99.90
21039;DHT22;10678;51.002;4.786;2023-08-30T06:20:14;16.40;99.90
21039;DHT22;10678;51.002;4.786;2023-08-30T06:22:39;16.40;99.90
21039;DHT22;10678;51.002;4.786;2023-08-30T06:25:08;16.30;99.90
21039;DHT22;10678;51.002;4.786;2023-08-30T06:27:36;16.30;99.90
21039;DHT22;10678;51.002;4.786;2023-08-30T06:30:01;16.40;99.90
21039;DHT22;10678;51.002;4.786;2023-08-30T06:32:29;16.40;99.90
21039;DHT22;10678;51.002;4.786;2023-08-30T06:34:54;16.30;99.90
21039;DHT22;10678;51.002;4.786;2023-08-30T06:37:20;16.30;99.90
21039;DHT22;10678;51.002;4.786;2023-08-30T06:39:45;16.20;99.90
21039;DHT22;10678;51.002;4.786;2023-08-30T06:42:11;16.20;99.90
21039;DHT22;10678;51.002;4.786;2023-08-30T06:44:37;16.30;99.90
21039;DHT22;10678;51.002;4.786;2023-08-30T06:47:02;16.30;99.90
21039;DHT22;10678;51.002;4.786;2023-08-30T06:49:28;16.30;99.90
21039;DHT22;10678;51.002;4.786;2023-08-30T06:51:56;16.30;99.90
21039;DHT22;10678;51.002;4.786;2023-08-30T06:54:22;16.50;99.90
21039;DHT22;10678;51.002;4.786;2023-08-30T06:56:58;16.50;99.90
21039;DHT22;10678;51.002;4.786;2023-08-30T06:59:24;16.50;99.90
21039;DHT22;10678;51.002;4.786;2023-08-30T07:01:49;16.60;99.90
21039;DHT22;10678;51.002;4.786;2023-08-30T07:04:15;16.60;99.90
21039;DHT22;10678;51.002;4.786;2023-08-30T07:06:40;16.40;99.90
21039;DHT22;10678;51.002;4.786;2023-08-30T07:09:06;16.40;99.90
21039;DHT22;10678;51.002;4.786;2023-08-30T07:11:32;16.40;99.90
21039;DHT22;10678;51.002;4.786;2023-08-30T07:13:58;16.40;99.90
21039;DHT22;10678;51.002;4.786;2023-08-30T07:16:23;16.50;99.90
21039;DHT22;10678;51.002;4.786;2023-08-30T07:18:49;16.50;99.90
21039;DHT22;10678;51.002;4.786;2023-08-30T07:21:15;16.40;99.90
21039;DHT22;10678;51.002;4.786;2023-08-30T07:23:41;16.40;99.90
21039;DHT22;10678;51.002;4.786;2023-08-30T07:26:06;16.40;99.90
21039;DHT22;10678;51.002;4.786;2023-08-30T07:28:32;16.40;99.90
21039;DHT22;10678;51.002;4.786;2023-08-30T07:31:03;16.50;99.90
21039;DHT22;10678;51.002;4.786;2023-08-30T07:33:29;16.50;99.90
21039;DHT22;10678;51.002;4.786;2023-08-30T07:35:54;16.50;99.90
21039;DHT22;10678;51.002;4.786;2023-08-30T07:38:20;16.30;99.90
21039;DHT22;10678;51.002;4.786;2023-08-30T07:40:45;16.40;99.90
21039;DHT22;10678;51.002;4.786;2023-08-30T07:43:11;16.30;99.90
21039;DHT22;10678;51.002;4.786;2023-08-30T07:45:37;16.40;99.90
21039;DHT22;10678;51.002;4.786;2023-08-30T07:48:02;16.40;99.90
21039;DHT22;10678;51.002;4.786;2023-08-30T07:50:28;16.50;99.90
21039;DHT22;10678;51.002;4.786;2023-08-30T07:52:54;16.60;99.90
21039;DHT22;10678;51.002;4.786;2023-08-30T07:55:19;16.50;99.90
21039;DHT22;10678;51.002;4.786;2023-08-30T07:57:45;16.50;99.90
21039;DHT22;10678;51.002;4.786;2023-08-30T08:00:11;16.50;99.90
21039;DHT22;10678;51.002;4.786;2023-08-30T08:02:37;16.60;99.90
21039;DHT22;10678;51.002;4.786;2023-08-30T08:05:03;16.60;99.90
21039;DHT22;10678;51.002;4.786;2023-08-30T08:07:29;16.70;99.90
21039;DHT22;10678;51.002;4.786;2023-08-30T08:09:54;16.70;99.90
21039;DHT22;10678;51.002;4.786;2023-08-30T08:12:20;16.70;99.90
21039;DHT22;10678;51.002;4.786;2023-08-30T08:14:46;16.80;99.90
21039;DHT22;10678;51.002;4.786;2023-08-30T08:17:12;16.80;99.90
21039;DHT22;10678;51.002;4.786;2023-08-30T08:19:37;16.80;99.90
21039;DHT22;10678;51.002;4.786;2023-08-30T08:22:05;16.90;99.90
21039;DHT22;10678;51.002;4.786;2023-08-30T08:24:31;17.00;99.90
21039;DHT22;10678;51.002;4.786;2023-08-30T08:26:57;17.00;99.90
21039;DHT22;10678;51.002;4.786;2023-08-30T08:29:23;17.00;99.90
21039;DHT22;10678;51.002;4.786;2023-08-30T08:31:49;17.00;99.90
21039;DHT22;10678;51.002;4.786;2023-08-30T08:34:14;17.10;99.90
21039;DHT22;10678;51.002;4.786;2023-08-30T08:36:41;17.10;99.90
21039;DHT22;10678;51.002;4.786;2023-08-30T08:39:07;17.30;99.90
21039;DHT22;10678;51.002;4.786;2023-08-30T08:41:41;17.30;99.90
21039;DHT22;10678;51.002;4.786;2023-08-30T08:44:08;17.30;99.90
21039;DHT22;10678;51.002;4.786;2023-08-30T08:46:38;17.30;99.90
21039;DHT22;10678;51.002;4.786;2023-08-30T08:49:15;17.40;99.90
21039;DHT22;10678;51.002;4.786;2023-08-30T08:51:41;17.50;99.90
21039;DHT22;10678;51.002;4.786;2023-08-30T08:54:11;17.40;99.90
21039;DHT22;10678;51.002;4.786;2023-08-30T08:56:37;17.50;99.90
21039;DHT22;10678;51.002;4.786;2023-08-30T08:59:04;17.60;99.90
21039;DHT22;10678;51.002;4.786;2023-08-30T09:01:34;17.70;99.90
21039;DHT22;10678;51.002;4.786;2023-08-30T09:04:10;17.70;99.90
21039;DHT22;10678;51.002;4.786;2023-08-30T09:06:37;17.80;99.90
21039;DHT22;10678;51.002;4.786;2023-08-30T09:09:03;17.90;99.90
21039;DHT22;10678;51.002;4.786;2023-08-30T09:11:30;18.00;99.90
21039;DHT22;10678;51.002;4.786;2023-08-30T09:13:56;18.20;99.90
21039;DHT22;10678;51.002;4.786;2023-08-30T09:16:21;18.40;99.90
21039;DHT22;10678;51.002;4.786;2023-08-30T09:19:00;18.50;99.90
21039;DHT22;10678;51.002;4.786;2023-08-30T09:21:26;18.70;99.90
21039;DHT22;10678;51.002;4.786;2023-08-30T09:24:01;18.70;99.90
21039;DHT22;10678;51.002;4.786;2023-08-30T09:26:29;18.50;99.90
21039;DHT22;10678;51.002;4.786;2023-08-30T09:29:01;18.50;99.90
21039;DHT22;10678;51.002;4.786;2023-08-30T09:31:36;18.60;99.90
21039;DHT22;10678;51.002;4.786;2023-08-30T09:34:05;18.60;99.90
21039;DHT22;10678;51.002;4.786;2023-08-30T09:36:38;18.60;99.90
21039;DHT22;10678;51.002;4.786;2023-08-30T09:39:12;18.70;99.90
21039;DHT22;10678;51.002;4.786;2023-08-30T09:44:11;19.20;99.90
21039;DHT22;10678;51.002;4.786;2023-08-30T09:49:08;20.30;99.90
21039;DHT22;10678;51.002;4.786;2023-08-30T09:51:35;20.80;99.90
21039;DHT22;10678;51.002;4.786;2023-08-30T09:54:04;21.00;99.90
21039;DHT22;10678;51.002;4.786;2023-08-30T09:56:32;20.80;99.90
21039;DHT22;10678;51.002;4.786;2023-08-30T09:58:58;20.50;99.90
21039;DHT22;10678;51.002;4.786;2023-08-30T10:01:27;20.40;99.90
21039;DHT22;10678;51.002;4.786;2023-08-30T10:03:55;20.30;99.90
21039;DHT22;10678;51.002;4.786;2023-08-30T10:06:24;20.20;99.90
21039;DHT22;10678;51.002;4.786;2023-08-30T10:08:52;20.20;99.90
21039;DHT22;10678;51.002;4.786;2023-08-30T10:11:18;20.10;99.90
21039;DHT22;10678;51.002;4.786;2023-08-30T10:13:44;20.00;99.90
21039;DHT22;10678;51.002;4.786;2023-08-30T10:16:19;19.90;99.90
21039;DHT22;10678;51.002;4.786;2023-08-30T10:18:52;19.60;99.90
21039;DHT22;10678;51.002;4.786;2023-08-30T10:21:19;19.50;99.90
21039;DHT22;10678;51.002;4.786;2023-08-30T10:23:47;19.50;99.90
21039;DHT22;10678;51.002;4.786;2023-08-30T10:26:15;19.50;99.90
21039;DHT22;10678;51.002;4.786;2023-08-30T10:28:42;19.50;99.90
21039;DHT22;10678;51.002;4.786;2023-08-30T10:31:08;19.50;99.90
21039;DHT22;10678;51.002;4.786;2023-08-30T10:33:49;19.60;99.90
21039;DHT22;10678;51.002;4.786;2023-08-30T10:36:26;19.50;99.90
21039;DHT22;10678;51.002;4.786;2023-08-30T10:38:55;19.60;99.90
21039;DHT22;10678;51.002;4.786;2023-08-30T10:41:27;19.60;99.90
21039;DHT22;10678;51.002;4.786;2023-08-30T10:43:55;19.70;99.90
21039;DHT22;10678;51.002;4.786;2023-08-30T10:46:31;19.70;99.90
21039;DHT22;10678;51.002;4.786;2023-08-30T10:49:08;19.70;99.90
21039;DHT22;10678;51.002;4.786;2023-08-30T10:51:38;19.80;99.90
21039;DHT22;10678;51.002;4.786;2023-08-30T10:54:15;19.80;99.90
21039;DHT22;10678;51.002;4.786;2023-08-30T10:59:20;19.80;99.90
21039;DHT22;10678;51.002;4.786;2023-08-30T11:01:47;19.80;99.90
21039;DHT22;10678;51.002;4.786;2023-08-30T11:04:15;19.80;99.90
21039;DHT22;10678;51.002;4.786;2023-08-30T11:06:46;19.80;99.90
21039;DHT22;10678;51.002;4.786;2023-08-30T11:09:14;19.80;99.90
21039;DHT22;10678;51.002;4.786;2023-08-30T11:11:40;19.90;99.90
21039;DHT22;10678;51.002;4.786;2023-08-30T11:14:10;19.90;99.90
21039;DHT22;10678;51.002;4.786;2023-08-30T11:16:36;20.00;99.90
21039;DHT22;10678;51.002;4.786;2023-08-30T11:19:03;20.10;99.90
21039;DHT22;10678;51.002;4.786;2023-08-30T11:21:30;20.20;99.90
21039;DHT22;10678;51.002;4.786;2023-08-30T11:23:56;20.20;99.90
21039;DHT22;10678;51.002;4.786;2023-08-30T11:26:22;20.10;99.90
21039;DHT22;10678;51.002;4.786;2023-08-30T11:28:48;20.10;99.90
21039;DHT22;10678;51.002;4.786;2023-08-30T11:31:23;20.00;99.90
21039;DHT22;10678;51.002;4.786;2023-08-30T11:33:57;20.00;99.90
21039;DHT22;10678;51.002;4.786;2023-08-30T11:36:27;20.20;99.90
21039;DHT22;10678;51.002;4.786;2023-08-30T11:38:53;20.30;99.90
21039;DHT22;10678;51.002;4.786;2023-08-30T11:41:26;20.50;99.90
21039;DHT22;10678;51.002;4.786;2023-08-30T11:43:52;20.80;99.90
21039;DHT22;10678;51.002;4.786;2023-08-30T11:46:18;21.10;99.90
21039;DHT22;10678;51.002;4.786;2023-08-30T11:48:47;21.60;99.90
21039;DHT22;10678;51.002;4.786;2023-08-30T11:51:13;22.30;99.90
21039;DHT22;10678;51.002;4.786;2023-08-30T11:53:39;23.30;99.90
21039;DHT22;10678;51.002;4.786;2023-08-30T11:56:06;23.90;99.90
21039;DHT22;10678;51.002;4.786;2023-08-30T11:58:35;23.80;99.90
21039;DHT22;10678;51.002;4.786;2023-08-30T12:01:02;23.70;99.90
21039;DHT22;10678;51.002;4.786;2023-08-30T12:03:29;23.20;99.90
21039;DHT22;10678;51.002;4.786;2023-08-30T12:05:55;22.80;99.90
21039;DHT22;10678;51.002;4.786;2023-08-30T12:08:24;22.30;99.90
21039;DHT22;10678;51.002;4.786;2023-08-30T12:10:50;21.90;99.90
21039;DHT22;10678;51.002;4.786;2023-08-30T12:13:48;21.40;99.90
21039;DHT22;10678;51.002;4.786;2023-08-30T12:16:17;21.20;99.90
21039;DHT22;10678;51.002;4.786;2023-08-30T12:18:43;21.00;99.90
21039;DHT22;10678;51.002;4.786;2023-08-30T12:21:09;21.00;99.90
21039;DHT22;10678;51.002;4.786;2023-08-30T12:23:35;21.00;99.90
21039;DHT22;10678;51.002;4.786;2023-08-30T12:26:03;21.10;99.90
21039;DHT22;10678;51.002;4.786;2023-08-30T12:28:32;21.20;99.90
21039;DHT22;10678;51.002;4.786;2023-08-30T12:30:58;21.40;99.90
21039;DHT22;10678;51.002;4.786;2023-08-30T12:33:25;21.60;99.90
21039;DHT22;10678;51.002;4.786;2023-08-30T12:35:54;21.60;99.90
21039;DHT22;10678;51.002;4.786;2023-08-30T12:38:20;21.70;99.90
21039;DHT22;10678;51.002;4.786;2023-08-30T12:40:51;22.10;99.90
21039;DHT22;10678;51.002;4.786;2023-08-30T12:43:18;23.00;99.90
21039;DHT22;10678;51.002;4.786;2023-08-30T12:45:44;24.00;99.90
21039;DHT22;10678;51.002;4.786;2023-08-30T12:48:12;24.60;99.90
21039;DHT22;10678;51.002;4.786;2023-08-30T12:50:39;24.90;99.90
21039;DHT22;10678;51.002;4.786;2023-08-30T12:53:06;24.90;99.90
21039;DHT22;10678;51.002;4.786;2023-08-30T12:55:32;25.30;99.90
21039;DHT22;10678;51.002;4.786;2023-08-30T12:57:58;25.50;99.90
21039;DHT22;10678;51.002;4.786;2023-08-30T13:00:24;25.90;99.90
21039;DHT22;10678;51.002;4.786;2023-08-30T13:02:49;26.20;99.90
21039;DHT22;10678;51.002;4.786;2023-08-30T13:05:15;26.00;99.90
21039;DHT22;10678;51.002;4.786;2023-08-30T13:07:41;25.70;99.90
21039;DHT22;10678;51.002;4.786;2023-08-30T13:10:08;26.00;99.90
21039;DHT22;10678;51.002;4.786;2023-08-30T13:12:34;26.60;99.90
21039;DHT22;10678;51.002;4.786;2023-08-30T13:14:59;27.00;99.90
21039;DHT22;10678;51.002;4.786;2023-08-30T13:17:25;27.20;99.90
21039;DHT22;10678;51.002;4.786;2023-08-30T13:19:51;27.30;99.90
21039;DHT22;10678;51.002;4.786;2023-08-30T13:22:16;27.30;99.90
21039;DHT22;10678;51.002;4.786;2023-08-30T13:24:43;27.70;99.90
21039;DHT22;10678;51.002;4.786;2023-08-30T13:27:09;27.70;99.90
21039;DHT22;10678;51.002;4.786;2023-08-30T13:29:35;27.60;99.90
21039;DHT22;10678;51.002;4.786;2023-08-30T13:32:01;27.20;99.90
21039;DHT22;10678;51.002;4.786;2023-08-30T13:34:27;26.50;99.90
21039;DHT22;10678;51.002;4.786;2023-08-30T13:36:52;26.30;99.90
21039;DHT22;10678;51.002;4.786;2023-08-30T13:39:18;26.80;99.90
21039;DHT22;10678;51.002;4.786;2023-08-30T13:41:46;27.30;99.90
21039;DHT22;10678;51.002;4.786;2023-08-30T13:44:12;27.70;99.90
21039;DHT22;10678;51.002;4.786;2023-08-30T13:46:38;27.70;99.90
21039;DHT22;10678;51.002;4.786;2023-08-30T13:49:03;27.80;99.90
21039;DHT22;10678;51.002;4.786;2023-08-30T13:51:29;27.70;99.90
21039;DHT22;10678;51.002;4.786;2023-08-30T13:53:55;27.40;99.90
21039;DHT22;10678;51.002;4.786;2023-08-30T13:56:23;27.20;99.90
21039;DHT22;10678;51.002;4.786;2023-08-30T13:58:49;26.50;99.90
21039;DHT22;10678;51.002;4.786;2023-08-30T14:01:15;25.50;99.90
21039;DHT22;10678;51.002;4.786;2023-08-30T14:03:42;24.50;99.90
21039;DHT22;10678;51.002;4.786;2023-08-30T14:06:08;23.90;99.90
21039;DHT22;10678;51.002;4.786;2023-08-30T14:08:33;23.40;99.90
21039;DHT22;10678;51.002;4.786;2023-08-30T14:10:59;23.00;99.90
21039;DHT22;10678;51.002;4.786;2023-08-30T14:13:25;22.70;99.90
21039;DHT22;10678;51.002;4.786;2023-08-30T14:15:50;22.50;99.90
21039;DHT22;10678;51.002;4.786;2023-08-30T14:18:16;22.20;99.90
21039;DHT22;10678;51.002;4.786;2023-08-30T14:20:43;21.90;99.90
21039;DHT22;10678;51.002;4.786;2023-08-30T14:23:09;21.80;99.90
21039;DHT22;10678;51.002;4.786;2023-08-30T14:25:35;21.60;99.90
21039;DHT22;10678;51.002;4.786;2023-08-30T14:28:01;21.30;99.90
21039;DHT22;10678;51.002;4.786;2023-08-30T14:30:28;21.20;99.90
21039;DHT22;10678;51.002;4.786;2023-08-30T14:32:53;21.30;99.90
21039;DHT22;10678;51.002;4.786;2023-08-30T14:35:19;21.40;99.90
21039;DHT22;10678;51.002;4.786;2023-08-30T14:37:50;21.00;99.90
21039;DHT22;10678;51.002;4.786;2023-08-30T14:40:16;20.90;99.90
21039;DHT22;10678;51.002;4.786;2023-08-30T14:42:42;20.80;99.90
21039;DHT22;10678;51.002;4.786;2023-08-30T14:45:08;20.80;99.90
21039;DHT22;10678;51.002;4.786;2023-08-30T14:47:34;20.80;99.90
21039;DHT22;10678;51.002;4.786;2023-08-30T14:50:00;20.90;99.90
21039;DHT22;10678;51.002;4.786;2023-08-30T14:52:29;21.00;99.90
21039;DHT22;10678;51.002;4.786;2023-08-30T14:54:55;21.10;99.90
21039;DHT22;10678;51.002;4.786;2023-08-30T14:57:21;21.30;99.90
21039;DHT22;10678;51.002;4.786;2023-08-30T14:59:47;21.20;99.90
21039;DHT22;10678;51.002;4.786;2023-08-30T15:02:13;21.10;99.90
21039;DHT22;10678;51.002;4.786;2023-08-30T15:04:39;21.00;99.90
21039;DHT22;10678;51.002;4.786;2023-08-30T15:07:05;21.00;99.90
21039;DHT22;10678;51.002;4.786;2023-08-30T15:09:31;20.90;99.90
21039;DHT22;10678;51.002;4.786;2023-08-30T15:11:57;20.90;99.90
21039;DHT22;10678;51.002;4.786;2023-08-30T15:14:24;20.70;99.90
21039;DHT22;10678;51.002;4.786;2023-08-30T15:16:49;20.60;99.90
21039;DHT22;10678;51.002;4.786;2023-08-30T15:19:15;20.50;99.90
21039;DHT22;10678;51.002;4.786;2023-08-30T15:21:41;20.50;99.90
21039;DHT22;10678;51.002;4.786;2023-08-30T15:24:07;20.40;99.90
21039;DHT22;10678;51.002;4.786;2023-08-30T15:26:32;20.60;99.90
21039;DHT22;10678;51.002;4.786;2023-08-30T15:28:58;20.70;99.90
21039;DHT22;10678;51.002;4.786;2023-08-30T15:31:24;20.70;99.90
21039;DHT22;10678;51.002;4.786;2023-08-30T15:33:49;20.60;99.90
21039;DHT22;10678;51.002;4.786;2023-08-30T15:36:15;20.70;99.90
21039;DHT22;10678;51.002;4.786;2023-08-30T15:38:40;20.40;99.90